Terminal Aerodrome Forecast
Issued by NWS

Home | Current Version | Previous Version | Text Only | Print | Product List | Glossary On
Versions: 1 2 3 4 5 6 7 8 9 10 11 12 13 14 15 16 17 18 19 20 21 22 23 24 25
000
FTUS45 KABQ 171200 AAA
TAFROW
TAF AMD
KROW 171211Z 1712/1812 VRB06KT 5SM BR VCSH SCT001 BKN060
      TEMPO 1712/1715 1SM BR BKN001
     FM171600 15010KT P6SM SCT020 BKN060
     FM172200 VRB15G25KT P6SM VCTS SCT030 BKN060CB
     FM180100 11006KT P6SM VCSH SCT010 BKN030
     FM180400 10005KT 1SM BR VCFG SCT002 BKN010
     FM181000 05005KT 3SM -RA BR VCFG SCT005 BKN015=

USA.gov is the U.S. government's official web portal to all federal, state and local government web resources and services.